Time;durP1;ratioP1;P1;durP2;ratioP2;P2;SDS_P1;SDS_P2;PMS_P1;PMS_P2;Temp;Humidity;BMP_temperature;BMP_pressure;BME280_temperature;BME280_humidity;BME280_pressure;Samples;Min_cycle;Max_cycle;Signal;HPM_P1;HPM_P2
2022/11/13 00:01:25;;;;;;;7.10;4.80;;;8.10;99.90;;;;;;5115383;28;20578;-76
2022/11/13 00:03:51;;;;;;;7.23;4.90;;;8.10;99.90;;;;;;5115614;28;20193;-76
2022/11/13 00:06:18;;;;;;;6.93;4.63;;;8.10;99.90;;;;;;5115227;28;20165;-76
2022/11/13 00:08:44;;;;;;;6.40;4.60;;;8.10;99.90;;;;;;5114245;28;20176;-76
2022/11/13 00:11:17;;;;;;;8.73;4.90;;;8.10;99.90;;;;;;5126964;27;20447;-77
2022/11/13 00:13:43;;;;;;;7.87;5.97;;;8.10;99.90;;;;;;5107037;28;20403;-76
2022/11/13 00:16:20;;;;;;;7.97;5.37;;;8.10;99.90;;;;;;5115011;28;20411;-76
2022/11/13 00:18:46;;;;;;;7.10;5.00;;;8.10;99.90;;;;;;5115553;28;20434;-76
2022/11/13 00:21:19;;;;;;;11.03;4.80;;;8.10;99.90;;;;;;5115098;28;20454;-76
2022/11/13 00:23:45;;;;;;;5.00;4.13;;;8.10;99.90;;;;;;5115241;28;20429;-76
2022/11/13 00:26:18;;;;;;;6.40;5.30;;;8.10;99.90;;;;;;5114504;28;20418;-76
2022/11/13 00:28:44;;;;;;;9.93;6.30;;;8.10;99.90;;;;;;5115251;28;20240;-76
2022/11/13 00:31:12;;;;;;;6.80;5.03;;;8.10;99.90;;;;;;5114507;28;20462;-76
2022/11/13 00:33:38;;;;;;;6.60;5.00;;;8.20;99.90;;;;;;5115045;28;20818;-76
2022/11/13 00:36:31;;;;;;;7.60;5.47;;;8.20;99.90;;;;;;5114728;28;20403;-76
2022/11/13 00:38:57;;;;;;;6.60;4.30;;;8.10;99.90;;;;;;5091276;28;20511;-76
2022/11/13 00:41:23;;;;;;;7.27;5.10;;;8.10;99.90;;;;;;5094467;28;20538;-76
2022/11/13 00:43:49;;;;;;;6.93;5.03;;;8.10;99.90;;;;;;5093273;28;20162;-76
2022/11/13 00:46:14;;;;;;;11.13;5.60;;;8.10;99.90;;;;;;5094221;28;20913;-76
2022/11/13 00:48:40;;;;;;;5.90;5.17;;;8.10;99.90;;;;;;5100996;28;20836;-76
2022/11/13 00:51:06;;;;;;;6.00;4.83;;;8.10;99.90;;;;;;5114438;28;20181;-76
2022/11/13 00:53:31;;;;;;;11.33;5.67;;;8.00;99.90;;;;;;5114639;28;20157;-76
2022/11/13 00:55:59;;;;;;;7.17;5.03;;;8.00;99.90;;;;;;5114187;28;20248;-77
2022/11/13 00:58:25;;;;;;;6.70;4.60;;;8.00;99.90;;;;;;5114263;28;20165;-76
2022/11/13 01:00:50;;;;;;;10.03;6.27;;;8.00;99.90;;;;;;5114451;28;21028;-75
2022/11/13 01:03:16;;;;;;;9.00;5.43;;;7.90;99.90;;;;;;5114495;28;20645;-76
2022/11/13 01:05:44;;;;;;;6.33;5.43;;;7.90;99.90;;;;;;5113124;28;20240;-76
2022/11/13 01:08:11;;;;;;;12.00;6.47;;;7.80;99.90;;;;;;5114447;28;20391;-76
2022/11/13 01:10:43;;;;;;;8.67;6.00;;;7.80;99.90;;;;;;5114115;28;20537;-76
2022/11/13 01:13:08;;;;;;;7.10;5.83;;;7.80;99.90;;;;;;5114209;28;20398;-76
2022/11/13 01:15:37;;;;;;;7.63;5.53;;;7.70;99.90;;;;;;5113581;28;20415;-76
2022/11/13 01:18:02;;;;;;;7.43;5.67;;;7.70;99.90;;;;;;5114053;28;20264;-76
2022/11/13 01:20:28;;;;;;;5.90;4.50;;;7.70;99.90;;;;;;5113954;28;20584;-76
2022/11/13 01:22:53;;;;;;;6.77;5.00;;;7.60;99.90;;;;;;5126605;27;20184;-76
2022/11/13 01:25:19;;;;;;;8.97;6.07;;;7.60;99.90;;;;;;5113369;28;20182;-76
2022/11/13 01:27:44;;;;;;;7.17;5.27;;;7.60;99.90;;;;;;5114003;28;20582;-76
2022/11/13 01:30:10;;;;;;;8.90;5.83;;;7.60;99.90;;;;;;5113616;28;20181;-77
2022/11/13 01:32:36;;;;;;;8.63;5.70;;;7.60;99.90;;;;;;5113869;28;20184;-76
2022/11/13 01:35:01;;;;;;;6.80;5.67;;;7.50;99.90;;;;;;5113400;28;20425;-76
2022/11/13 01:37:27;;;;;;;8.23;5.97;;;7.60;99.90;;;;;;5112596;28;20168;-76
2022/11/13 01:39:53;;;;;;;8.60;7.13;;;7.60;99.90;;;;;;5113683;28;20224;-76
2022/11/13 01:42:18;;;;;;;5.90;3.97;;;7.50;99.90;;;;;;5111693;28;20272;-76
2022/11/13 01:44:50;;;;;;;7.90;6.13;;;7.50;99.90;;;;;;5113088;28;20596;-76
2022/11/13 01:47:17;;;;;;;7.73;5.53;;;7.50;99.90;;;;;;5113755;28;20156;-76
2022/11/13 01:49:44;;;;;;;7.90;5.57;;;7.50;99.90;;;;;;5113457;28;20399;-76
2022/11/13 01:52:27;;;;;;;6.00;5.30;;;7.50;99.90;;;;;;5113430;28;20924;-76
2022/11/13 01:54:56;;;;;;;6.57;5.20;;;7.40;99.90;;;;;;5112958;28;20398;-75
2022/11/13 01:57:23;;;;;;;6.93;4.63;;;7.40;99.90;;;;;;5113470;28;20455;-76
2022/11/13 01:59:53;;;;;;;12.73;5.60;;;7.40;99.90;;;;;;5113440;28;20467;-76
2022/11/13 02:02:18;;;;;;;7.87;6.17;;;7.40;99.90;;;;;;5112070;28;20858;-76
2022/11/13 02:04:45;;;;;;;8.20;5.67;;;7.40;99.90;;;;;;5112750;28;20494;-75
2022/11/13 02:07:13;;;;;;;9.03;5.87;;;7.50;99.90;;;;;;5112995;28;20173;-76
2022/11/13 02:09:45;;;;;;;9.50;5.47;;;7.50;99.90;;;;;;5113149;28;20437;-76
2022/11/13 02:12:14;;;;;;;10.57;5.50;;;7.50;99.90;;;;;;5113262;28;20422;-76
2022/11/13 02:14:52;;;;;;;9.33;6.37;;;7.50;99.90;;;;;;5112861;28;20772;-76
2022/11/13 02:17:41;;;;;;;5.47;4.57;;;7.50;99.90;;;;;;5112631;28;20478;-76
2022/11/13 02:20:08;;;;;;;7.07;5.87;;;7.50;99.90;;;;;;5112984;27;20451;-76
2022/11/13 02:22:51;;;;;;;10.20;5.77;;;7.50;99.90;;;;;;5112931;28;20521;-76
2022/11/13 02:25:18;;;;;;;7.10;5.77;;;7.50;99.90;;;;;;5112743;28;20395;-76
2022/11/13 02:27:47;;;;;;;11.83;7.50;;;7.50;99.90;;;;;;5112685;28;20452;-76
2022/11/13 02:30:19;;;;;;;9.77;6.60;;;7.50;99.90;;;;;;5114874;27;20521;-76
2022/11/13 02:32:47;;;;;;;9.83;6.00;;;7.60;99.90;;;;;;5112706;28;20423;-75
2022/11/13 02:35:16;;;;;;;7.83;6.70;;;7.50;99.90;;;;;;5112545;28;20806;-77
2022/11/13 02:37:41;;;;;;;5.83;5.13;;;7.50;99.90;;;;;;5112644;28;20770;-77
2022/11/13 02:40:07;;;;;;;7.27;5.60;;;7.50;99.90;;;;;;5112647;28;20458;-76
2022/11/13 02:42:33;;;;;;;8.63;5.53;;;7.50;99.90;;;;;;5112721;28;20165;-76
2022/11/13 02:44:59;;;;;;;8.77;6.07;;;7.50;99.90;;;;;;5112254;28;20540;-76
2022/11/13 02:47:24;;;;;;;8.17;5.67;;;7.50;99.90;;;;;;5111033;28;20616;-76
2022/11/13 02:49:49;;;;;;;9.33;6.20;;;7.50;99.90;;;;;;5112603;28;20217;-76
2022/11/13 02:52:15;;;;;;;7.13;5.80;;;7.60;99.90;;;;;;5112223;28;20193;-76
2022/11/13 02:54:40;;;;;;;7.33;5.30;;;7.60;99.90;;;;;;5112210;28;20622;-76
2022/11/13 02:57:06;;;;;;;7.90;6.47;;;7.60;99.90;;;;;;5112484;28;20173;-76
2022/11/13 02:59:31;;;;;;;6.83;5.30;;;7.50;99.90;;;;;;5112322;28;20169;-76
2022/11/13 03:01:57;;;;;;;8.53;5.13;;;7.50;99.90;;;;;;5112144;28;20208;-76
2022/11/13 03:04:22;;;;;;;9.73;6.10;;;7.40;99.90;;;;;;5112321;28;20541;-76
2022/11/13 03:06:48;;;;;;;7.63;5.40;;;7.40;99.90;;;;;;5112438;28;20160;-76
2022/11/13 03:09:14;;;;;;;10.40;5.07;;;7.40;99.90;;;;;;5112143;28;20176;-76
2022/11/13 03:11:39;;;;;;;11.93;5.90;;;7.30;99.90;;;;;;5111053;28;20196;-76
2022/11/13 03:14:05;;;;;;;11.40;6.00;;;7.20;99.90;;;;;;5112366;28;20176;-76
2022/11/13 03:16:30;;;;;;;9.73;7.20;;;7.20;99.90;;;;;;5112151;28;20638;-76
2022/11/13 03:18:56;;;;;;;6.00;4.50;;;7.20;99.90;;;;;;5112098;28;20176;-76
2022/11/13 03:21:23;;;;;;;8.10;6.20;;;7.20;99.90;;;;;;5112126;28;20573;-76
2022/11/13 03:23:48;;;;;;;11.70;6.63;;;7.10;99.90;;;;;;5112161;28;20187;-76
2022/11/13 03:26:15;;;;;;;8.67;6.07;;;7.10;99.90;;;;;;5111914;28;20398;-76
2022/11/13 03:28:41;;;;;;;6.03;5.30;;;7.10;99.90;;;;;;5112154;28;20172;-75
2022/11/13 03:31:07;;;;;;;10.27;6.07;;;7.10;99.90;;;;;;5110528;28;20442;-76
2022/11/13 03:33:33;;;;;;;8.23;6.23;;;7.00;99.90;;;;;;5112267;28;20278;-76
2022/11/13 03:35:59;;;;;;;7.37;5.90;;;7.00;99.90;;;;;;5111905;28;20896;-76
2022/11/13 03:38:24;;;;;;;7.90;6.00;;;7.00;99.90;;;;;;5111953;28;20180;-76
2022/11/13 03:40:50;;;;;;;7.07;5.93;;;6.90;99.90;;;;;;5120903;27;20224;-76
2022/11/13 03:43:16;;;;;;;7.10;5.60;;;6.90;99.90;;;;;;5115513;27;20510;-75
2022/11/13 03:45:45;;;;;;;14.90;7.77;;;6.90;99.90;;;;;;5111782;28;20455;-76
2022/11/13 03:48:11;;;;;;;14.07;6.90;;;6.80;99.90;;;;;;5110419;28;20584;-76
2022/11/13 03:50:37;;;;;;;10.13;6.40;;;6.80;99.90;;;;;;5111977;28;20430;-76
2022/11/13 03:53:02;;;;;;;10.30;6.47;;;6.80;99.90;;;;;;5110697;28;20919;-75
2022/11/13 03:55:28;;;;;;;8.97;6.80;;;6.80;99.90;;;;;;5111689;28;20161;-76
2022/11/13 03:57:54;;;;;;;7.27;5.33;;;6.70;99.90;;;;;;5111733;28;20183;-76
2022/11/13 04:00:20;;;;;;;14.20;7.73;;;6.70;99.90;;;;;;5111810;28;20189;-76
2022/11/13 04:02:45;;;;;;;8.57;6.07;;;6.60;99.90;;;;;;5111898;28;20402;-76
2022/11/13 04:05:11;;;;;;;9.30;5.93;;;6.70;99.90;;;;;;5113954;28;20169;-75
2022/11/13 04:07:36;;;;;;;7.70;5.57;;;6.70;99.90;;;;;;5115322;28;20188;-75
2022/11/13 04:10:03;;;;;;;7.87;6.37;;;6.60;99.90;;;;;;5115501;28;20176;-76
2022/11/13 04:12:28;;;;;;;10.70;6.93;;;6.60;99.90;;;;;;5115616;28;20164;-76
2022/11/13 04:14:54;;;;;;;7.87;6.17;;;6.60;99.90;;;;;;5115179;28;20464;-75
2022/11/13 04:17:19;;;;;;;7.30;5.20;;;6.60;99.90;;;;;;5115249;28;20264;-75
2022/11/13 04:19:45;;;;;;;9.17;6.63;;;6.60;99.90;;;;;;5114004;28;20169;-76
2022/11/13 04:22:10;;;;;;;9.90;7.13;;;6.60;99.90;;;;;;5115062;28;20188;-76
2022/11/13 04:24:36;;;;;;;10.33;6.63;;;6.60;99.90;;;;;;5115070;28;20157;-76
2022/11/13 04:27:01;;;;;;;9.43;6.00;;;6.50;99.90;;;;;;5115040;28;20524;-76
2022/11/13 04:29:27;;;;;;;6.97;5.00;;;6.50;99.90;;;;;;5113684;28;20165;-76
2022/11/13 04:31:52;;;;;;;10.00;5.80;;;6.50;99.90;;;;;;5115035;28;20185;-75
2022/11/13 04:34:18;;;;;;;9.70;6.47;;;6.50;99.90;;;;;;5113513;28;20179;-76
2022/11/13 04:36:43;;;;;;;7.30;5.57;;;6.50;99.90;;;;;;5114960;28;20517;-76
2022/11/13 04:39:09;;;;;;;13.17;6.80;;;6.50;99.90;;;;;;5113544;28;20169;-76
2022/11/13 04:44:18;;;;;;;9.30;6.20;;;6.50;99.90;;;;;;5114744;28;20172;-76
2022/11/13 04:46:43;;;;;;;9.27;6.33;;;6.40;99.90;;;;;;5113289;28;20414;-76
2022/11/13 04:49:09;;;;;;;8.43;6.63;;;6.40;99.90;;;;;;5113499;28;20165;-76
2022/11/13 04:51:35;;;;;;;9.33;6.17;;;6.40;99.90;;;;;;5117170;27;20650;-76
2022/11/13 04:54:00;;;;;;;11.60;6.30;;;6.30;99.90;;;;;;5124745;27;20176;-76
2022/11/13 04:56:26;;;;;;;9.27;5.50;;;6.30;99.90;;;;;;5112976;28;20659;-76
2022/11/13 04:58:52;;;;;;;12.00;6.00;;;6.30;99.90;;;;;;5114692;28;20545;-76
2022/11/13 05:01:17;;;;;;;8.00;5.97;;;6.20;99.90;;;;;;5114465;28;20197;-76
2022/11/13 05:03:43;;;;;;;13.90;6.93;;;6.20;99.90;;;;;;5114548;28;20417;-76
2022/11/13 05:06:09;;;;;;;6.93;5.60;;;6.20;99.90;;;;;;5112642;28;20904;-76
2022/11/13 05:08:35;;;;;;;6.90;5.57;;;6.10;99.90;;;;;;5114509;27;20157;-76
2022/11/13 05:11:02;;;;;;;8.50;6.40;;;6.10;99.90;;;;;;5114327;28;20426;-76
2022/11/13 05:13:31;;;;;;;8.60;6.07;;;6.10;99.90;;;;;;5114353;28;20405;-76
2022/11/13 05:16:04;;;;;;;8.40;5.17;;;6.10;99.90;;;;;;5112764;28;20419;-76
2022/11/13 05:18:30;;;;;;;6.70;5.60;;;6.00;99.90;;;;;;5114332;28;20434;-76
2022/11/13 05:20:56;;;;;;;10.60;6.10;;;6.00;99.90;;;;;;5114303;28;20978;-76
2022/11/13 05:23:22;;;;;;;5.73;5.03;;;5.90;99.90;;;;;;5114082;28;20783;-76
2022/11/13 05:25:47;;;;;;;9.90;6.07;;;5.90;99.90;;;;;;5113901;28;20402;-76
2022/11/13 05:28:13;;;;;;;8.70;6.30;;;5.90;99.90;;;;;;5113858;28;20173;-76
2022/11/13 05:30:38;;;;;;;8.23;6.00;;;5.80;99.90;;;;;;5113604;28;20188;-76
2022/11/13 05:33:04;;;;;;;12.03;7.60;;;5.80;99.90;;;;;;5113891;28;20164;-76
2022/11/13 05:35:29;;;;;;;7.30;5.80;;;5.80;99.90;;;;;;5113671;28;20626;-76
2022/11/13 05:37:58;;;;;;;11.10;6.10;;;5.80;99.90;;;;;;5113909;28;20171;-76
2022/11/13 05:40:24;;;;;;;6.97;5.63;;;5.80;99.90;;;;;;5113153;28;20200;-76
2022/11/13 05:42:51;;;;;;;11.00;6.30;;;5.80;99.90;;;;;;5112008;28;20872;-76
2022/11/13 05:45:17;;;;;;;7.17;5.63;;;5.80;99.90;;;;;;5110770;28;20165;-76
2022/11/13 05:47:42;;;;;;;8.10;6.37;;;5.80;99.90;;;;;;5113238;28;20415;-76
2022/11/13 05:50:08;;;;;;;8.80;5.17;;;5.80;99.90;;;;;;5113192;28;20627;-76
2022/11/13 05:52:34;;;;;;;9.50;5.57;;;5.80;99.90;;;;;;5113240;28;20180;-76
2022/11/13 05:54:59;;;;;;;9.70;5.10;;;5.70;99.90;;;;;;5112054;28;20403;-76
2022/11/13 05:57:25;;;;;;;9.97;6.67;;;5.70;99.90;;;;;;5113446;28;20630;-76
2022/11/13 05:59:50;;;;;;;9.47;6.13;;;5.70;99.90;;;;;;5122316;27;20172;-76
2022/11/13 06:02:16;;;;;;;8.10;5.30;;;5.70;99.90;;;;;;5113365;27;20218;-76
2022/11/13 06:04:41;;;;;;;9.03;6.00;;;5.60;99.90;;;;;;5112953;28;20173;-76
2022/11/13 06:07:07;;;;;;;7.57;5.13;;;5.70;99.90;;;;;;5113134;28;20216;-76
2022/11/13 06:09:32;;;;;;;7.60;5.23;;;5.70;99.90;;;;;;5113343;28;20501;-76
2022/11/13 06:11:58;;;;;;;8.80;5.90;;;5.60;99.90;;;;;;5113218;28;20658;-76
2022/11/13 06:14:23;;;;;;;8.43;5.60;;;5.60;99.90;;;;;;5112286;28;20185;-76
2022/11/13 06:16:49;;;;;;;7.13;4.93;;;5.60;99.90;;;;;;5111889;28;20165;-76
2022/11/13 06:19:14;;;;;;;12.47;6.40;;;5.50;99.90;;;;;;5111837;28;20222;-76
2022/11/13 06:21:40;;;;;;;8.37;5.30;;;5.50;99.90;;;;;;5112904;28;20200;-77
2022/11/13 06:24:07;;;;;;;11.63;5.30;;;5.50;99.90;;;;;;5112730;28;20562;-76
2022/11/13 06:26:34;;;;;;;8.40;6.17;;;5.50;99.90;;;;;;5112429;28;20200;-76
2022/11/13 06:29:01;;;;;;;6.80;5.17;;;5.50;99.90;;;;;;5108287;28;20746;-76
2022/11/13 06:31:29;;;;;;;8.10;4.83;;;5.50;99.90;;;;;;5112416;28;20434;-76
2022/11/13 06:33:58;;;;;;;7.50;5.47;;;5.60;99.90;;;;;;5112830;28;20402;-76
2022/11/13 06:36:27;;;;;;;8.50;5.80;;;5.60;99.90;;;;;;5112578;28;20399;-77
2022/11/13 06:38:52;;;;;;;6.57;5.37;;;5.60;99.90;;;;;;5112444;28;20411;-76
2022/11/13 06:41:20;;;;;;;8.77;5.80;;;5.60;99.90;;;;;;5112546;28;20453;-76
2022/11/13 06:43:47;;;;;;;12.30;5.33;;;5.50;99.90;;;;;;5111441;28;20165;-76
2022/11/13 06:46:17;;;;;;;7.00;5.27;;;5.50;99.90;;;;;;5112419;28;20398;-76
2022/11/13 06:48:43;;;;;;;11.47;6.30;;;5.50;99.90;;;;;;5112821;28;20398;-76
2022/11/13 06:51:14;;;;;;;9.17;5.77;;;5.50;99.90;;;;;;5111834;28;20518;-76
2022/11/13 06:53:40;;;;;;;8.13;5.00;;;5.50;99.90;;;;;;5112599;28;20214;-76
2022/11/13 06:56:06;;;;;;;7.90;5.63;;;5.50;99.90;;;;;;5112252;28;20470;-76
2022/11/13 06:58:32;;;;;;;9.80;7.03;;;5.50;99.90;;;;;;5112431;28;20684;-77
2022/11/13 07:01:04;;;;;;;7.27;5.50;;;5.40;99.90;;;;;;5112510;28;20800;-76
2022/11/13 07:03:30;;;;;;;5.97;4.83;;;5.60;99.90;;;;;;5112192;28;20446;-76
2022/11/13 07:05:55;;;;;;;7.93;5.40;;;5.60;99.90;;;;;;5111514;28;20438;-76
2022/11/13 07:08:21;;;;;;;7.60;4.97;;;5.50;99.90;;;;;;5113670;28;20176;-76
2022/11/13 07:10:54;;;;;;;8.20;6.80;;;5.50;99.90;;;;;;5123673;28;20188;-76
2022/11/13 07:13:20;;;;;;;8.37;6.20;;;5.50;99.90;;;;;;5112086;28;20175;-76
2022/11/13 07:15:46;;;;;;;7.57;5.20;;;5.60;99.90;;;;;;5112355;28;20391;-75
2022/11/13 07:18:11;;;;;;;10.27;5.67;;;5.60;99.90;;;;;;5111096;28;21157;-78
2022/11/13 07:20:37;;;;;;;8.50;6.10;;;5.70;99.90;;;;;;5112276;28;20222;-76
2022/11/13 07:23:03;;;;;;;8.83;5.50;;;5.70;99.90;;;;;;5111874;28;20181;-76
2022/11/13 07:25:30;;;;;;;13.97;5.23;;;5.70;99.90;;;;;;5111910;28;20172;-76
2022/11/13 07:27:55;;;;;;;10.80;6.17;;;5.70;99.90;;;;;;5112259;28;20403;-75
2022/11/13 07:30:22;;;;;;;7.23;5.40;;;5.80;99.90;;;;;;5111753;28;20844;-76
2022/11/13 07:32:47;;;;;;;7.20;6.27;;;5.80;99.90;;;;;;5112080;28;20578;-76
2022/11/13 07:35:13;;;;;;;10.70;5.97;;;5.80;99.90;;;;;;5111679;28;20414;-76
2022/11/13 07:37:39;;;;;;;7.70;5.70;;;5.90;99.90;;;;;;5112133;28;20218;-76
2022/11/13 07:40:05;;;;;;;7.70;4.90;;;6.00;99.90;;;;;;5112366;28;20637;-76
2022/11/13 07:42:31;;;;;;;8.87;6.10;;;6.10;99.90;;;;;;5115956;28;20173;-76
2022/11/13 07:44:56;;;;;;;8.40;5.60;;;6.20;99.90;;;;;;5115713;28;20422;-76
2022/11/13 07:47:23;;;;;;;9.93;7.70;;;6.40;99.90;;;;;;5115906;28;20252;-76
2022/11/13 07:49:48;;;;;;;6.17;5.57;;;7.00;99.90;;;;;;5114770;28;20187;-77
2022/11/13 07:52:14;;;;;;;9.17;6.87;;;7.90;99.90;;;;;;5115495;28;20807;-76
2022/11/13 07:54:39;;;;;;;9.70;5.43;;;9.00;99.90;;;;;;5115168;28;20549;-77
2022/11/13 07:57:05;;;;;;;20.33;11.90;;;10.30;99.90;;;;;;5115949;28;20156;-76
2022/11/13 07:59:30;;;;;;;4.13;3.53;;;11.40;99.90;;;;;;5115939;28;20621;-76
2022/11/13 08:01:56;;;;;;;3.97;3.30;;;12.70;99.90;;;;;;5115679;28;20677;-77
2022/11/13 08:04:21;;;;;;;6.13;3.70;;;13.80;99.90;;;;;;5115212;28;20641;-77
2022/11/13 08:06:47;;;;;;;5.80;4.67;;;14.90;99.90;;;;;;5115760;28;20165;-77
2022/11/13 08:09:12;;;;;;;5.10;3.87;;;15.90;99.90;;;;;;5115669;28;20176;-77
2022/11/13 08:11:38;;;;;;;5.40;4.57;;;16.50;99.90;;;;;;5115589;28;20192;-78
2022/11/13 08:14:04;;;;;;;5.03;3.80;;;17.30;99.90;;;;;;5115544;28;20169;-77
2022/11/13 08:16:30;;;;;;;4.90;4.00;;;18.00;94.90;;;;;;5113250;28;20687;-77
2022/11/13 08:18:55;;;;;;;5.80;3.90;;;18.00;93.30;;;;;;5115508;28;20221;-77
2022/11/13 08:21:21;;;;;;;7.10;3.97;;;18.30;90.00;;;;;;5127954;27;20461;-77
2022/11/13 08:23:49;;;;;;;4.23;3.40;;;18.20;89.00;;;;;;5115645;28;20247;-77
2022/11/13 08:26:15;;;;;;;3.77;3.47;;;18.60;87.80;;;;;;5115530;28;20427;-76
2022/11/13 08:28:41;;;;;;;3.73;3.33;;;19.00;81.40;;;;;;5115317;28;20422;-76
2022/11/13 08:31:10;;;;;;;4.00;3.60;;;20.00;75.00;;;;;;5115277;28;20434;-76
2022/11/13 08:33:36;;;;;;;3.53;3.23;;;20.00;71.60;;;;;;5115568;28;20403;-77
2022/11/13 08:36:01;;;;;;;4.87;4.47;;;20.00;66.70;;;;;;5115208;28;20493;-77
2022/11/13 08:38:27;;;;;;;5.03;3.40;;;20.30;67.90;;;;;;5115199;28;20175;-77
2022/11/13 08:40:56;;;;;;;5.30;3.90;;;20.50;66.20;;;;;;5114607;28;20196;-73
2022/11/13 08:43:21;;;;;;;4.03;3.70;;;20.70;62.20;;;;;;5114908;28;20169;-76
2022/11/13 08:45:47;;;;;;;4.57;3.47;;;20.10;61.20;;;;;;5096321;28;20414;-75
2022/11/13 08:48:13;;;;;;;3.00;2.70;;;19.80;62.90;;;;;;5114932;28;20160;-76
2022/11/13 08:50:38;;;;;;;4.70;4.10;;;19.10;63.90;;;;;;5114674;28;20717;-75
2022/11/13 08:53:05;;;;;;;5.27;3.03;;;18.60;66.30;;;;;;5114659;28;20169;-75
2022/11/13 08:55:32;;;;;;;4.20;3.80;;;18.50;67.00;;;;;;5114495;28;20247;-76
2022/11/13 08:57:59;;;;;;;4.80;4.00;;;18.50;67.70;;;;;;5117563;28;20413;-75
2022/11/13 09:00:26;;;;;;;8.27;4.63;;;18.60;69.90;;;;;;5119378;28;20834;-76
2022/11/13 09:02:55;;;;;;;4.63;4.03;;;19.20;68.40;;;;;;5117039;28;20471;-76
2022/11/13 09:05:22;;;;;;;4.07;3.67;;;18.70;66.40;;;;;;5114304;28;20410;-76
2022/11/13 09:07:47;;;;;;;4.60;3.30;;;18.70;69.30;;;;;;5114210;28;20880;-76
2022/11/13 09:10:13;;;;;;;4.70;3.80;;;18.80;69.70;;;;;;5096111;28;20547;-75
2022/11/13 09:12:39;;;;;;;3.13;2.80;;;18.80;68.50;;;;;;5114231;28;20661;-75
2022/11/13 09:15:05;;;;;;;3.73;3.37;;;18.70;67.20;;;;;;5095783;28;20208;-75
2022/11/13 09:17:30;;;;;;;5.93;4.13;;;18.70;66.00;;;;;;5114333;28;20718;-76
2022/11/13 09:19:56;;;;;;;3.80;3.07;;;18.30;67.50;;;;;;5114177;28;20495;-76
2022/11/13 09:22:22;;;;;;;3.10;2.83;;;17.80;68.10;;;;;;5114006;28;20306;-75
2022/11/13 09:24:48;;;;;;;3.37;3.03;;;16.90;71.00;;;;;;5113706;28;21066;-76
2022/11/13 09:27:13;;;;;;;3.43;3.13;;;16.80;81.70;;;;;;5114296;28;20160;-75
2022/11/13 09:29:39;;;;;;;3.53;3.10;;;16.70;85.40;;;;;;5112764;28;20169;-75
2022/11/13 09:32:04;;;;;;;4.20;2.73;;;16.60;83.10;;;;;;5114059;27;20692;-76
2022/11/13 09:34:32;;;;;;;3.37;3.07;;;16.70;85.30;;;;;;5129712;27;20160;-75
2022/11/13 09:36:58;;;;;;;7.30;3.40;;;17.20;85.30;;;;;;5131384;27;20419;-75
2022/11/13 09:39:24;;;;;;;3.50;3.20;;;17.30;81.20;;;;;;5113962;27;20394;-75
2022/11/13 09:41:58;;;;;;;4.63;3.23;;;17.20;80.50;;;;;;5112380;28;20468;-75
2022/11/13 09:44:30;;;;;;;3.30;3.00;;;17.70;78.30;;;;;;5113662;28;20571;-75
2022/11/13 09:47:11;;;;;;;4.53;3.17;;;17.70;76.60;;;;;;5112629;28;20406;-76
2022/11/13 09:49:45;;;;;;;4.20;3.33;;;17.80;73.90;;;;;;5113597;28;20938;-75
2022/11/13 09:52:15;;;;;;;8.60;3.10;;;18.00;75.10;;;;;;5113582;27;20422;-76
2022/11/13 09:54:41;;;;;;;4.67;3.00;;;18.70;71.30;;;;;;5113466;28;20398;-76
2022/11/13 09:57:44;;;;;;;2.43;2.23;;;19.30;68.50;;;;;;5113618;28;20407;-76
2022/11/13 10:00:10;;;;;;;3.60;2.80;;;20.10;65.50;;;;;;5100937;28;20209;-76
2022/11/13 10:03:13;;;;;;;3.00;2.70;;;20.40;62.80;;;;;;5112721;28;20418;-77
2022/11/13 10:05:59;;;;;;;3.20;2.23;;;21.00;59.00;;;;;;5113153;28;20401;-77
2022/11/13 10:08:47;;;;;;;2.67;2.47;;;21.70;57.60;;;;;;5113385;28;20486;-76
2022/11/13 10:11:43;;;;;;;3.00;2.43;;;21.90;56.80;;;;;;5113206;28;20421;-77
2022/11/13 10:14:33;;;;;;;3.97;3.17;;;22.50;56.10;;;;;;5111715;28;20783;-76
2022/11/13 10:17:18;;;;;;;3.30;2.53;;;22.90;54.50;;;;;;5113210;28;20761;-76
2022/11/13 10:19:55;;;;;;;3.07;2.73;;;22.60;53.10;;;;;;5111834;28;20438;-76
2022/11/13 10:22:30;;;;;;;3.27;2.50;;;22.60;52.90;;;;;;5112718;28;20847;-76
2022/11/13 10:25:03;;;;;;;2.83;2.13;;;22.40;52.60;;;;;;5112729;28;20382;-76
2022/11/13 10:27:29;;;;;;;2.50;2.30;;;23.00;52.30;;;;;;5112767;28;20423;-77
2022/11/13 10:29:55;;;;;;;2.37;2.17;;;22.90;52.00;;;;;;5111358;28;20938;-76
2022/11/13 10:32:30;;;;;;;2.47;2.20;;;22.90;51.50;;;;;;5112945;27;20263;-77
2022/11/13 10:35:04;;;;;;;2.30;2.10;;;23.20;51.40;;;;;;5112410;28;20406;-77
2022/11/13 10:37:51;;;;;;;2.43;2.23;;;24.20;51.10;;;;;;5112860;28;20394;-76
2022/11/13 10:40:28;;;;;;;2.83;2.60;;;24.70;49.80;;;;;;5112605;28;20442;-77
2022/11/13 10:43:03;;;;;;;2.33;2.10;;;25.20;48.50;;;;;;5114843;27;20448;-77
2022/11/13 10:45:28;;;;;;;2.67;2.47;;;25.70;47.80;;;;;;5120317;27;20409;-77
2022/11/13 10:47:54;;;;;;;2.40;2.20;;;26.20;46.50;;;;;;5112709;28;20426;-77
2022/11/13 10:50:22;;;;;;;3.00;1.90;;;25.60;45.90;;;;;;5112385;28;20164;-76
2022/11/13 10:52:49;;;;;;;5.63;2.40;;;24.90;46.20;;;;;;5092221;28;20169;-77
2022/11/13 10:55:33;;;;;;;2.53;2.30;;;25.30;47.50;;;;;;5090650;28;20420;-76
2022/11/13 10:58:01;;;;;;;2.20;2.00;;;25.40;46.10;;;;;;5092206;28;20404;-77
2022/11/13 11:00:35;;;;;;;2.63;2.20;;;26.00;46.40;;;;;;5094265;28;20450;-77
2022/11/13 11:03:01;;;;;;;2.20;2.00;;;26.30;45.50;;;;;;5112501;28;20403;-77
2022/11/13 11:05:27;;;;;;;2.10;1.63;;;26.30;44.80;;;;;;5112273;28;20750;-77
2022/11/13 11:07:55;;;;;;;2.57;2.23;;;27.10;45.50;;;;;;5112410;28;20676;-77
2022/11/13 11:10:29;;;;;;;2.43;2.00;;;27.70;44.30;;;;;;5111188;28;20942;-77
2022/11/13 11:12:59;;;;;;;4.13;2.33;;;27.90;43.60;;;;;;5112186;28;20502;-74
2022/11/13 11:15:34;;;;;;;2.03;1.80;;;27.40;42.20;;;;;;5115021;28;20394;-74
2022/11/13 11:18:04;;;;;;;2.23;2.00;;;27.30;42.40;;;;;;5116785;28;20404;-76
2022/11/13 11:20:40;;;;;;;2.90;2.20;;;27.20;43.00;;;;;;5116271;28;20532;-77
2022/11/13 11:23:39;;;;;;;3.20;2.00;;;27.50;42.40;;;;;;5116485;28;20505;-74
2022/11/13 11:26:09;;;;;;;1.97;1.40;;;27.60;40.80;;;;;;5116321;28;20481;-76
2022/11/13 11:28:40;;;;;;;2.63;1.60;;;26.10;39.90;;;;;;5116166;28;20422;-77
2022/11/13 11:31:45;;;;;;;2.03;1.83;;;25.60;41.10;;;;;;5116150;28;20438;-77
2022/11/13 11:34:23;;;;;;;2.50;2.10;;;25.60;42.40;;;;;;5115016;28;20406;-76
2022/11/13 11:37:15;;;;;;;2.10;1.90;;;25.70;42.20;;;;;;5116144;28;20493;-77
2022/11/13 11:40:25;;;;;;;2.43;2.10;;;26.70;43.50;;;;;;5116388;28;20737;-76
2022/11/13 11:43:09;;;;;;;2.50;2.27;;;27.10;42.60;;;;;;5112075;28;20418;-76
2022/11/13 11:45:39;;;;;;;2.30;2.10;;;27.90;43.20;;;;;;5116004;28;20451;-76
2022/11/13 11:48:16;;;;;;;2.33;2.10;;;28.80;42.10;;;;;;5116097;28;20440;-76
2022/11/13 11:50:59;;;;;;;2.80;2.30;;;28.90;41.20;;;;;;5118493;27;20437;-76
2022/11/13 11:54:03;;;;;;;2.97;1.97;;;29.10;40.90;;;;;;5116107;28;20497;-76
2022/11/13 11:56:43;;;;;;;2.27;2.07;;;29.70;39.40;;;;;;5064571;28;20450;-76
2022/11/13 11:59:24;;;;;;;2.20;1.87;;;30.00;38.80;;;;;;5095050;28;20435;-76
2022/11/13 12:02:19;;;;;;;2.27;1.93;;;29.40;37.60;;;;;;5095202;28;20455;-77
2022/11/13 12:05:12;;;;;;;1.90;1.70;;;29.70;38.00;;;;;;5099072;28;20433;-77
2022/11/13 12:07:51;;;;;;;4.40;2.53;;;29.30;37.40;;;;;;5114567;28;20449;-77
2022/11/13 12:10:46;;;;;;;2.67;2.47;;;29.00;37.60;;;;;;5115674;28;20442;-77
2022/11/13 12:13:31;;;;;;;2.60;2.23;;;29.20;37.60;;;;;;5101317;28;20430;-76
2022/11/13 12:16:05;;;;;;;2.10;1.90;;;29.10;38.30;;;;;;5113978;28;20853;-75
2022/11/13 12:18:37;;;;;;;3.63;1.93;;;29.30;37.40;;;;;;5114228;28;20505;-76
2022/11/13 12:21:05;;;;;;;2.00;1.80;;;29.20;37.00;;;;;;5115080;28;20458;-77
2022/11/13 12:23:43;;;;;;;1.80;1.60;;;28.70;37.10;;;;;;5115167;28;20526;-77
2022/11/13 12:26:18;;;;;;;2.87;2.30;;;29.10;37.50;;;;;;5114563;28;20397;-77
2022/11/13 12:28:43;;;;;;;4.23;2.10;;;29.40;37.60;;;;;;5113977;28;20502;-77
2022/11/13 12:31:24;;;;;;;2.27;1.90;;;29.80;39.00;;;;;;5114910;28;20525;-77
2022/11/13 12:34:06;;;;;;;3.03;2.17;;;30.40;38.40;;;;;;5115142;28;20611;-75
2022/11/13 12:36:32;;;;;;;2.17;1.97;;;30.60;36.90;;;;;;5114948;28;20403;-74
2022/11/13 12:39:05;;;;;;;2.50;2.30;;;30.80;37.10;;;;;;5115089;28;20398;-75
2022/11/13 12:41:44;;;;;;;2.10;1.90;;;30.90;36.60;;;;;;5113521;28;20480;-75
2022/11/13 12:44:19;;;;;;;2.53;2.33;;;31.20;37.20;;;;;;5114888;28;20748;-73
2022/11/13 12:46:45;;;;;;;2.93;2.57;;;31.90;37.10;;;;;;5115035;28;20410;-74
2022/11/13 12:49:32;;;;;;;2.40;2.07;;;32.50;36.30;;;;;;5114648;28;20963;-74
2022/11/13 12:52:15;;;;;;;3.80;2.30;;;32.60;35.00;;;;;;5113420;28;21002;-75
2022/11/13 12:54:41;;;;;;;2.90;2.50;;;32.40;34.90;;;;;;5114339;28;20919;-74
2022/11/13 12:57:12;;;;;;;2.60;2.37;;;32.40;35.90;;;;;;5114725;27;20409;-74
2022/11/13 12:59:48;;;;;;;3.10;2.23;;;32.80;36.70;;;;;;5121701;27;20500;-74
2022/11/13 13:02:20;;;;;;;3.50;2.97;;;33.20;35.80;;;;;;5116335;27;20495;-74
2022/11/13 13:04:57;;;;;;;1.87;1.77;;;33.10;34.20;;;;;;5113046;28;20821;-74
2022/11/13 13:07:53;;;;;;;3.57;2.40;;;33.50;36.00;;;;;;5114469;28;20398;-73